createdAt,value
2019-06-08T00:00:16.784Z,91.52
2019-06-08T00:01:16.451Z,92.22
2019-06-08T00:02:16.649Z,92.02
2019-06-08T00:03:16.669Z,91.72
2019-06-08T00:04:16.545Z,92.52
2019-06-08T00:05:16.866Z,92.22
2019-06-08T00:06:16.763Z,92.22
2019-06-08T00:07:16.605Z,91.32
2019-06-08T00:08:16.842Z,92.47
2019-06-08T00:09:16.767Z,92.12
2019-06-08T00:10:16.930Z,92.36
2019-06-08T00:11:16.878Z,92.72
2019-06-08T00:12:16.928Z,91.86
2019-06-08T00:13:17.043Z,92.02
2019-06-08T00:14:17.363Z,92.36
2019-06-08T00:15:16.232Z,91.16
2019-06-08T00:16:17.407Z,92.07
2019-06-08T00:17:31.349Z,92.07
2019-06-08T00:18:17.408Z,92.16
2019-06-08T00:19:17.321Z,92.27
2019-06-08T00:20:17.581Z,92.57
2019-06-08T00:21:16.136Z,91.77
2019-06-08T00:22:16.116Z,92.77
2019-06-08T00:23:16.132Z,91.97
2019-06-08T00:24:16.091Z,92.27
2019-06-08T00:25:16.096Z,91.97
2019-06-08T00:26:16.067Z,92.07
2019-06-08T00:27:16.071Z,92.27
2019-06-08T00:28:16.182Z,92.57
2019-06-08T00:29:16.317Z,92.67
2019-06-08T00:30:16.023Z,92.57
2019-06-08T00:31:17.344Z,92.16
2019-06-08T00:32:16.193Z,92.47
2019-06-08T00:33:17.032Z,92.97
2019-06-08T00:34:16.559Z,92.77
2019-06-08T00:35:16.574Z,92.77
2019-06-08T00:36:16.740Z,91.77
2019-06-08T00:37:16.718Z,92.57
2019-06-08T00:38:16.911Z,92.77
2019-06-08T00:39:16.751Z,92.67
2019-06-08T00:40:16.835Z,92.57
2019-06-08T00:41:17.047Z,92.57
2019-06-08T00:42:17.029Z,92.47
2019-06-08T00:43:17.071Z,92.27
2019-06-08T00:44:17.076Z,92.47
2019-06-08T00:45:17.240Z,92.57
2019-06-08T00:46:17.163Z,92.57
2019-06-08T00:47:16.360Z,92.71
2019-06-08T00:48:16.714Z,92.57
2019-06-08T00:49:16.443Z,92.27
2019-06-08T00:50:16.714Z,92.36
2019-06-08T00:51:16.770Z,92.86
2019-06-08T00:52:16.865Z,92.61
2019-06-08T00:53:16.992Z,92.41
2019-06-08T00:54:15.757Z,92.36
2019-06-08T00:55:15.750Z,92.36
2019-06-08T00:56:15.746Z,92.57
2019-06-08T00:57:15.723Z,92.41
2019-06-08T00:58:15.730Z,92.41
2019-06-08T00:59:15.699Z,92.67
2019-06-08T01:00:15.686Z,93.21
2019-06-08T01:01:15.677Z,93.07
2019-06-08T01:02:15.664Z,92.47
2019-06-08T01:03:15.664Z,93.17
2019-06-08T01:04:15.645Z,93.17
2019-06-08T01:05:15.630Z,93.17
2019-06-08T01:06:15.619Z,92.67
2019-06-08T01:07:15.617Z,92.67
2019-06-08T01:08:15.616Z,92.27
2019-06-08T01:09:15.602Z,92.67
2019-06-08T01:10:15.576Z,93.07
2019-06-08T01:11:15.581Z,93.27
2019-06-08T01:12:15.553Z,92.57
2019-06-08T01:13:15.554Z,93.07
2019-06-08T01:14:15.544Z,93.07
2019-06-08T01:15:15.529Z,92.57
2019-06-08T01:16:15.510Z,92.86
2019-06-08T01:17:15.508Z,93.17
2019-06-08T01:18:15.485Z,92.57
2019-06-08T01:19:15.494Z,93.47
2019-06-08T01:20:15.461Z,92.82
2019-06-08T01:21:15.454Z,92.52
2019-06-08T01:22:15.442Z,93.07
2019-06-08T01:23:15.434Z,92.93
2019-06-08T01:24:15.430Z,93.12
2019-06-08T01:25:15.409Z,92.97
2019-06-08T01:26:15.405Z,93.23
2019-06-08T01:27:15.399Z,92.93
2019-06-08T01:28:15.395Z,92.72
2019-06-08T01:29:15.374Z,93.23
2019-06-08T01:30:15.356Z,93.12
2019-06-08T01:31:15.340Z,92.82
2019-06-08T01:32:15.344Z,92.93
2019-06-08T01:33:15.314Z,93.23
2019-06-08T01:34:15.319Z,92.52
2019-06-08T01:35:15.291Z,93.43
2019-06-08T01:36:15.286Z,92.82
2019-06-08T01:37:15.270Z,92.93
2019-06-08T01:38:15.259Z,92.82
2019-06-08T01:39:15.253Z,93.23
2019-06-08T01:40:15.253Z,93.23
2019-06-08T01:41:15.231Z,92.78
2019-06-08T01:42:15.213Z,93.23
2019-06-08T01:43:15.205Z,92.28
2019-06-08T01:44:15.194Z,92.58
2019-06-08T01:45:15.197Z,93.18
2019-06-08T01:46:15.181Z,92.48
2019-06-08T01:47:15.164Z,92.38
2019-06-08T01:48:19.980Z,92.48
2019-06-08T01:49:16.143Z,92.58
2019-06-08T01:50:15.147Z,92.48
2019-06-08T01:51:15.119Z,92.68
2019-06-08T01:52:15.111Z,92.38
2019-06-08T01:53:15.111Z,93.28
2019-06-08T01:54:15.086Z,92.38
2019-06-08T01:55:15.094Z,92.58
2019-06-08T01:56:15.067Z,92.78
2019-06-08T01:57:15.051Z,92.58
2019-06-08T01:58:15.039Z,92.58
2019-06-08T01:59:15.030Z,93.28
2019-06-08T02:00:36.950Z,92.58
2019-06-08T02:01:16.013Z,91.98
2019-06-08T02:02:15.006Z,92.88
2019-06-08T02:03:15.025Z,92.68
2019-06-08T02:04:14.971Z,92.08
2019-06-08T02:05:14.964Z,92.08
2019-06-08T02:06:14.961Z,91.72
2019-06-08T02:07:14.944Z,92.12
2019-06-08T02:08:14.927Z,91.52
2019-06-08T02:09:14.922Z,91.32
2019-06-08T02:10:14.909Z,91.82
2019-06-08T02:11:14.913Z,91.16
2019-06-08T02:12:14.884Z,91.56
2019-06-08T02:13:14.872Z,91.47
2019-06-08T02:14:14.877Z,92.07
2019-06-08T02:15:14.851Z,91.81
2019-06-08T02:16:14.863Z,91.86
2019-06-08T02:17:14.831Z,91.81
2019-06-08T02:18:14.818Z,91.51
2019-06-08T02:19:14.811Z,91.20
2019-06-08T02:20:14.796Z,90.70
2019-06-08T02:21:14.798Z,90.70
2019-06-08T02:22:14.773Z,90.81
2019-06-08T02:23:14.777Z,90.65
2019-06-08T02:24:14.757Z,91.25
2019-06-08T02:25:14.736Z,91.55
2019-06-08T02:26:14.749Z,91.35
2019-06-08T02:27:14.713Z,91.15
2019-06-08T02:28:14.706Z,90.45
2019-06-08T02:29:14.690Z,90.75
2019-06-08T02:30:14.691Z,91.15
2019-06-08T02:31:14.683Z,90.75
2019-06-08T02:32:14.672Z,90.79
2019-06-08T02:33:14.652Z,89.79
2019-06-08T02:34:14.643Z,90.69
2019-06-08T02:35:14.623Z,90.35
2019-06-08T02:36:14.635Z,91.19
2019-06-08T02:37:14.606Z,90.29
2019-06-08T02:38:14.592Z,90.99
2019-06-08T02:39:14.580Z,91.69
2019-06-08T02:40:14.574Z,91.69
2019-06-08T02:41:14.572Z,90.89
2019-06-08T02:42:14.547Z,91.60
2019-06-08T02:43:14.540Z,91.60
2019-06-08T02:44:14.533Z,91.30
2019-06-08T02:45:14.513Z,90.79
2019-06-08T02:46:14.517Z,91.50
2019-06-08T02:47:16.423Z,91.19
2019-06-08T02:48:14.499Z,91.30
2019-06-08T02:49:14.469Z,91.39
2019-06-08T02:50:14.462Z,91.54
2019-06-08T02:51:14.446Z,91.19
2019-06-08T02:52:14.441Z,91.50
2019-06-08T02:53:14.431Z,91.50
2019-06-08T02:54:14.410Z,90.94
2019-06-08T02:55:14.404Z,91.19
2019-06-08T02:56:14.420Z,91.24
2019-06-08T02:57:14.389Z,91.34
2019-06-08T02:58:14.380Z,91.74
2019-06-08T02:59:14.366Z,91.54
2019-06-08T03:00:14.382Z,91.14
2019-06-08T03:01:14.345Z,91.24
2019-06-08T03:02:14.324Z,91.74
2019-06-08T03:03:14.328Z,91.24
2019-06-08T03:04:14.316Z,91.84
2019-06-08T03:05:14.294Z,91.94
2019-06-08T03:06:14.283Z,91.74
2019-06-08T03:07:14.270Z,91.94
2019-06-08T03:08:14.274Z,91.84
2019-06-08T03:09:14.246Z,91.94
2019-06-08T03:10:14.249Z,92.44
2019-06-08T03:11:14.225Z,92.14
2019-06-08T03:12:14.223Z,92.24
2019-06-08T03:13:14.214Z,91.38
2019-06-08T03:14:14.190Z,91.84
2019-06-08T03:15:14.183Z,91.84
2019-06-08T03:16:14.184Z,91.88
2019-06-08T03:17:14.162Z,91.84
2019-06-08T03:18:14.160Z,91.78
2019-06-08T03:19:21.630Z,91.94
2019-06-08T03:20:15.123Z,92.08
2019-06-08T03:21:14.110Z,92.38
2019-06-08T03:22:14.107Z,91.99
2019-06-08T03:23:14.103Z,91.94
2019-06-08T03:24:14.083Z,91.03
2019-06-08T03:25:14.074Z,91.99
2019-06-08T03:26:14.061Z,91.78
2019-06-08T03:27:14.041Z,91.68
2019-06-08T03:28:14.059Z,92.08
2019-06-08T03:29:14.031Z,92.08
2019-06-08T03:30:18.478Z,92.18
2019-06-08T03:31:15.015Z,91.78
2019-06-08T03:32:14.002Z,91.78
2019-06-08T03:33:13.992Z,92.08
2019-06-08T03:34:13.970Z,91.99
2019-06-08T03:35:14.011Z,91.58
2019-06-08T03:36:13.947Z,92.18
2019-06-08T03:37:13.936Z,91.38
2019-06-08T03:38:13.937Z,91.68
2019-06-08T03:39:13.920Z,91.58
2019-06-08T03:40:13.903Z,91.78
2019-06-08T03:41:13.890Z,91.48
2019-06-08T03:42:13.882Z,92.08
2019-06-08T03:43:13.891Z,91.88
2019-06-08T03:44:13.864Z,91.28
2019-06-08T03:45:13.850Z,90.58
2019-06-08T03:46:13.843Z,91.68
2019-06-08T03:47:13.819Z,91.99
2019-06-08T03:48:13.830Z,90.88
2019-06-08T03:49:13.805Z,91.28
2019-06-08T03:50:13.786Z,91.78
2019-06-08T03:51:13.785Z,90.28
2019-06-08T03:52:13.786Z,90.68
2019-06-08T03:53:13.774Z,90.37
2019-06-08T03:54:13.740Z,91.63
2019-06-08T03:55:13.730Z,91.58
2019-06-08T03:56:13.723Z,91.93
2019-06-08T03:57:13.709Z,92.93
2019-06-08T03:58:13.720Z,93.54
2019-06-08T03:59:13.690Z,93.54
2019-06-08T04:00:13.998Z,93.38
2019-06-08T04:01:13.671Z,92.37
2019-06-08T04:02:13.657Z,94.02
2019-06-08T04:03:13.659Z,93.42
2019-06-08T04:04:13.635Z,94.13
2019-06-08T04:05:13.634Z,94.33
2019-06-08T04:06:13.611Z,94.33
2019-06-08T04:07:13.600Z,93.93
2019-06-08T04:08:13.607Z,94.33
2019-06-08T04:09:13.579Z,94.23
2019-06-08T04:10:13.577Z,95.03
2019-06-08T04:11:13.563Z,95.03
2019-06-08T04:12:13.549Z,94.93
2019-06-08T04:13:13.546Z,94.33
2019-06-08T04:14:13.522Z,94.43
2019-06-08T04:15:13.521Z,94.37
2019-06-08T04:16:13.507Z,94.43
2019-06-08T04:17:13.492Z,94.43
2019-06-08T04:18:13.498Z,95.03
2019-06-08T04:19:13.470Z,93.73
2019-06-08T04:20:13.459Z,95.13
2019-06-08T04:21:13.446Z,94.43
2019-06-08T04:22:13.447Z,94.02
2019-06-08T04:23:13.467Z,94.93
2019-06-08T04:24:13.414Z,94.67
2019-06-08T04:25:13.403Z,94.33
2019-06-08T04:26:13.390Z,94.43
2019-06-08T04:27:13.387Z,94.57
2019-06-08T04:28:13.411Z,94.23
2019-06-08T04:29:13.362Z,94.33
2019-06-08T04:30:13.352Z,94.13
2019-06-08T04:31:13.349Z,94.13
2019-06-08T04:32:13.329Z,94.23
2019-06-08T04:33:13.340Z,95.13
2019-06-08T04:34:13.304Z,94.23
2019-06-08T04:35:13.302Z,94.47
2019-06-08T04:36:13.286Z,94.07
2019-06-08T04:37:15.878Z,94.33
2019-06-08T04:38:13.291Z,93.62
2019-06-08T04:39:13.252Z,93.87
2019-06-08T04:40:13.253Z,94.43
2019-06-08T04:41:13.247Z,94.47
2019-06-08T04:42:13.224Z,94.23
2019-06-08T04:43:13.251Z,94.43
2019-06-08T04:44:13.197Z,94.43
2019-06-08T04:45:13.186Z,94.37
2019-06-08T04:46:13.288Z,94.57
2019-06-08T04:47:13.172Z,93.77
2019-06-08T04:48:13.170Z,95.38
2019-06-08T04:49:13.167Z,93.46
2019-06-08T04:50:22.666Z,93.07
2019-06-08T04:51:14.127Z,93.66
2019-06-08T04:52:13.136Z,93.66
2019-06-08T04:53:13.117Z,93.27
2019-06-08T04:54:14.600Z,93.57
2019-06-08T04:55:13.080Z,93.87
2019-06-08T04:56:13.071Z,94.27
2019-06-08T04:57:13.055Z,93.27
2019-06-08T04:58:13.078Z,93.27
2019-06-08T04:59:13.045Z,94.37
2019-06-08T05:00:13.668Z,93.77
2019-06-08T05:01:13.014Z,94.27
2019-06-08T05:02:13.001Z,94.57
2019-06-08T05:03:13.014Z,94.57
2019-06-08T05:04:12.980Z,94.37
2019-06-08T05:05:12.973Z,94.47
2019-06-08T05:06:12.957Z,94.27
2019-06-08T05:07:12.950Z,93.16
2019-06-08T05:08:12.954Z,94.47
2019-06-08T05:09:12.926Z,94.27
2019-06-08T05:10:12.913Z,94.27
2019-06-08T05:11:12.909Z,94.17
2019-06-08T05:12:12.897Z,93.66
2019-06-08T05:13:12.896Z,94.37
2019-06-08T05:14:12.868Z,94.37
2019-06-08T05:15:12.853Z,94.27
2019-06-08T05:16:12.854Z,93.16
2019-06-08T05:17:12.833Z,93.62
2019-06-08T05:18:12.844Z,93.62
2019-06-08T05:19:12.816Z,93.16
2019-06-08T05:20:12.802Z,94.33
2019-06-08T05:21:12.812Z,93.32
2019-06-08T05:22:12.789Z,94.73
2019-06-08T05:23:12.795Z,93.42
2019-06-08T05:24:12.766Z,93.73
2019-06-08T05:25:12.750Z,92.61
2019-06-08T05:26:12.736Z,93.82
2019-06-08T05:27:12.730Z,92.02
2019-06-08T05:28:12.728Z,93.12
2019-06-08T05:29:12.712Z,92.11
2019-06-08T05:30:12.697Z,92.61
2019-06-08T05:31:12.682Z,93.02
2019-06-08T05:32:12.670Z,93.07
2019-06-08T05:33:12.680Z,93.32
2019-06-08T05:34:12.648Z,92.02
2019-06-08T05:35:12.644Z,92.86
2019-06-08T05:36:12.636Z,92.92
2019-06-08T05:37:12.626Z,92.82
2019-06-08T05:38:12.618Z,92.61
2019-06-08T05:39:12.596Z,93.08
2019-06-08T05:40:12.598Z,92.97
2019-06-08T05:41:12.575Z,93.18
2019-06-08T05:42:12.562Z,92.13
2019-06-08T05:43:12.567Z,93.23
2019-06-08T05:44:12.537Z,91.42
2019-06-08T05:45:12.537Z,91.68
2019-06-08T05:46:12.522Z,91.58
2019-06-08T05:47:12.506Z,90.88
2019-06-08T05:48:12.513Z,91.14
2019-06-08T05:49:12.492Z,90.64
2019-06-08T05:50:12.478Z,91.80
2019-06-08T05:51:12.678Z,91.50
2019-06-08T05:52:12.456Z,91.60
2019-06-08T05:53:12.463Z,90.49
2019-06-08T05:54:12.433Z,90.65
2019-06-08T05:55:12.423Z,89.85
2019-06-08T05:56:12.408Z,90.05
2019-06-08T05:57:12.412Z,90.31
2019-06-08T05:58:12.426Z,89.11
2019-06-08T05:59:12.372Z,88.60
2019-06-08T06:00:12.367Z,87.80
2019-06-08T06:01:12.353Z,88.20
2019-06-08T06:02:12.341Z,88.76
2019-06-08T06:03:12.353Z,87.86
2019-06-08T06:04:12.329Z,87.86
2019-06-08T06:05:12.319Z,87.55
2019-06-08T06:06:12.295Z,88.36
2019-06-08T06:07:12.281Z,89.02
2019-06-08T06:08:18.771Z,87.76
2019-06-08T06:09:13.261Z,88.21
2019-06-08T06:10:12.253Z,88.92
2019-06-08T06:11:12.242Z,86.61
2019-06-08T06:12:12.229Z,87.26
2019-06-08T06:13:12.234Z,87.62
2019-06-08T06:14:12.211Z,85.46
2019-06-08T06:15:12.197Z,87.46
2019-06-08T06:16:12.193Z,86.66
2019-06-08T06:17:12.173Z,85.31
2019-06-08T06:18:12.174Z,86.25
2019-06-08T06:19:12.153Z,85.15
2019-06-08T06:20:12.140Z,84.41
2019-06-08T06:21:12.586Z,84.65
2019-06-08T06:22:12.115Z,84.41
2019-06-08T06:23:12.121Z,84.71
2019-06-08T06:24:12.104Z,85.61
2019-06-08T06:25:12.102Z,87.87
2019-06-08T06:26:12.071Z,85.57
2019-06-08T06:27:12.063Z,85.91
2019-06-08T06:28:12.068Z,86.37
2019-06-08T06:29:12.046Z,85.91
2019-06-08T06:30:12.047Z,87.12
2019-06-08T06:31:12.012Z,86.01
2019-06-08T06:32:12.011Z,85.51
2019-06-08T06:33:12.012Z,84.81
2019-06-08T06:34:11.985Z,86.46
2019-06-08T06:35:11.982Z,85.55
2019-06-08T06:36:11.968Z,83.85
2019-06-08T06:37:11.951Z,87.36
2019-06-08T06:38:11.953Z,87.26
2019-06-08T06:39:11.926Z,86.25
2019-06-08T06:40:11.914Z,84.05
2019-06-08T06:41:11.918Z,87.55
2019-06-08T06:42:11.890Z,84.75
2019-06-08T06:43:11.897Z,85.35
2019-06-08T06:44:11.872Z,86.05
2019-06-08T06:45:11.860Z,85.46
2019-06-08T06:46:11.848Z,84.89
2019-06-08T06:47:11.835Z,85.99
2019-06-08T06:48:11.839Z,85.39
2019-06-08T06:49:11.816Z,83.33
2019-06-08T06:50:11.802Z,84.99
2019-06-08T06:51:25.319Z,84.69
2019-06-08T06:52:12.780Z,86.25
2019-06-08T06:53:11.785Z,83.45
2019-06-08T06:54:11.762Z,83.95
2019-06-08T06:55:11.750Z,84.65
2019-06-08T06:56:11.736Z,84.65
2019-06-08T06:57:11.729Z,82.51
2019-06-08T06:58:11.734Z,81.41
2019-06-08T06:59:11.706Z,81.41
2019-06-08T07:00:11.704Z,81.41
2019-06-08T07:01:11.681Z,79.77
2019-06-08T07:02:11.668Z,81.57
2019-06-08T07:03:11.678Z,79.67
2019-06-08T07:04:11.646Z,79.77
2019-06-08T07:05:11.634Z,79.23
2019-06-08T07:06:11.624Z,80.03
2019-06-08T07:07:11.618Z,77.73
2019-06-08T07:08:11.617Z,78.39
2019-06-08T07:09:11.643Z,79.13
2019-06-08T07:10:11.584Z,79.09
2019-06-08T07:11:11.577Z,77.89
2019-06-08T07:12:11.556Z,77.45
2019-06-08T07:13:11.566Z,78.16
2019-06-08T07:14:11.536Z,80.65
2019-06-08T07:15:11.543Z,79.02
2019-06-08T07:16:18.347Z,81.81
2019-06-08T07:17:12.501Z,78.45
2019-06-08T07:18:11.505Z,78.52
2019-06-08T07:19:11.491Z,75.96
2019-06-08T07:20:11.473Z,74.66
2019-06-08T07:21:11.467Z,79.35
2019-06-08T07:22:11.448Z,77.66
2019-06-08T07:23:11.460Z,77.86
2019-06-08T07:24:11.428Z,78.19
2019-06-08T07:25:11.417Z,77.49
2019-06-08T07:26:11.434Z,75.89
2019-06-08T07:27:11.396Z,76.59
2019-06-08T07:28:11.403Z,76.09
2019-06-08T07:29:11.507Z,77.79
2019-06-08T07:30:11.390Z,76.29
2019-06-08T07:31:11.357Z,75.02
2019-06-08T07:32:11.345Z,78.49
2019-06-08T07:33:11.353Z,77.59
2019-06-08T07:34:11.323Z,77.09
2019-06-08T07:35:11.309Z,76.39
2019-06-08T07:36:11.298Z,78.19
2019-06-08T07:37:11.292Z,77.36
2019-06-08T07:38:11.293Z,78.96
2019-06-08T07:39:11.265Z,75.05
2019-06-08T07:40:11.249Z,77.92
2019-06-08T07:41:11.252Z,77.22
2019-06-08T07:42:11.235Z,76.52
2019-06-08T07:43:11.231Z,74.32
2019-06-08T07:44:11.209Z,75.92
2019-06-08T07:45:11.201Z,74.02
2019-06-08T07:46:11.195Z,74.12
2019-06-08T07:47:11.180Z,71.96
2019-06-08T07:48:11.185Z,70.96
2019-06-08T07:49:11.159Z,73.66
2019-06-08T07:50:11.154Z,74.05
2019-06-08T07:51:11.133Z,74.99
2019-06-08T07:52:11.205Z,73.19
2019-06-08T07:53:11.120Z,72.79
2019-06-08T07:54:11.101Z,74.03
2019-06-08T07:55:11.093Z,74.22
2019-06-08T07:56:11.078Z,76.73
2019-06-08T07:57:11.075Z,77.23
2019-06-08T07:58:11.079Z,78.63
2019-06-08T07:59:11.041Z,76.03
2019-06-08T08:00:11.077Z,78.43
2019-06-08T08:01:11.036Z,79.43
2019-06-08T08:02:11.014Z,76.46
2019-06-08T08:03:10.998Z,74.16
2019-06-08T08:04:11.005Z,75.56
2019-06-08T08:05:10.982Z,72.16
2019-06-08T08:06:10.993Z,74.00
2019-06-08T08:07:10.959Z,76.20
2019-06-08T08:08:10.952Z,79.21
2019-06-08T08:09:10.966Z,76.50
2019-06-08T08:10:10.937Z,75.10
2019-06-08T08:11:10.926Z,78.50
2019-06-08T08:12:12.243Z,76.10
2019-06-08T08:13:10.892Z,77.10
2019-06-08T08:14:10.905Z,79.21
2019-06-08T08:15:10.873Z,76.80
2019-06-08T08:16:10.859Z,76.10
2019-06-08T08:17:10.853Z,76.90
2019-06-08T08:18:10.882Z,75.40
2019-06-08T08:19:10.834Z,77.70
2019-06-08T08:20:10.830Z,75.60
2019-06-08T08:21:21.259Z,75.70
2019-06-08T08:22:22.077Z,75.40
2019-06-08T08:23:11.780Z,76.30
2019-06-08T08:24:10.772Z,77.17
2019-06-08T08:25:10.782Z,79.47
2019-06-08T08:26:10.752Z,79.86
2019-06-08T08:27:10.734Z,77.67
2019-06-08T08:28:10.728Z,77.56
2019-06-08T08:29:10.717Z,75.67
2019-06-08T08:30:10.725Z,75.40
2019-06-08T08:31:11.449Z,78.10
2019-06-08T08:32:10.689Z,76.50
2019-06-08T08:33:10.672Z,76.30
2019-06-08T08:34:10.664Z,75.40
2019-06-08T08:35:10.688Z,73.90
2019-06-08T08:36:10.644Z,76.34
2019-06-08T08:37:10.625Z,77.64
2019-06-08T08:38:10.615Z,75.93
2019-06-08T08:39:10.604Z,77.74
2019-06-08T08:40:10.593Z,75.13
2019-06-08T08:41:10.809Z,77.44
2019-06-08T08:42:10.568Z,77.74
2019-06-08T08:43:10.565Z,77.64
2019-06-08T08:44:10.557Z,74.33
2019-06-08T08:45:10.538Z,74.77
2019-06-08T08:46:10.535Z,75.84
2019-06-08T08:47:10.519Z,77.34
2019-06-08T08:48:24.595Z,76.04
2019-06-08T08:49:13.050Z,77.08
2019-06-08T08:50:10.482Z,75.04
2019-06-08T08:51:10.497Z,75.63
2019-06-08T08:52:11.651Z,74.27
2019-06-08T08:53:10.454Z,74.87
2019-06-08T08:54:10.447Z,74.97
2019-06-08T08:55:10.443Z,77.08
2019-06-08T08:56:10.437Z,76.28
2019-06-08T08:57:10.423Z,77.28
2019-06-08T08:58:10.402Z,76.67
2019-06-08T08:59:10.786Z,76.28
2019-06-08T09:00:10.379Z,76.07
2019-06-08T09:01:10.362Z,75.71
2019-06-08T09:02:11.502Z,76.11
2019-06-08T09:03:25.077Z,74.80
2019-06-08T09:04:11.331Z,76.11
2019-06-08T09:05:10.319Z,77.31
2019-06-08T09:06:10.311Z,76.01
2019-06-08T09:07:10.857Z,78.42
2019-06-08T09:08:10.289Z,80.72
2019-06-08T09:09:10.272Z,80.98
2019-06-08T09:10:11.429Z,79.78
2019-06-08T09:11:10.249Z,78.58
2019-06-08T09:12:10.253Z,78.68
2019-06-08T09:13:12.038Z,79.78
2019-06-08T09:14:14.098Z,78.34
2019-06-08T09:15:10.205Z,77.64
2019-06-08T09:16:10.207Z,78.54
2019-06-08T09:17:10.201Z,76.64
2019-06-08T09:18:10.185Z,74.73
2019-06-08T09:19:10.155Z,76.04
2019-06-08T09:20:15.356Z,77.20
2019-06-08T09:21:11.132Z,74.70
2019-06-08T09:22:10.160Z,74.20
2019-06-08T09:23:16.052Z,74.60
2019-06-08T09:24:11.212Z,77.50
2019-06-08T09:25:13.353Z,74.50
2019-06-08T09:26:13.127Z,73.70
2019-06-08T09:27:10.074Z,76.80
2019-06-08T09:28:10.077Z,75.70
2019-06-08T09:29:11.246Z,76.30
2019-06-08T09:30:10.037Z,73.39
2019-06-08T09:31:12.832Z,74.23
2019-06-08T09:32:10.024Z,72.03
2019-06-08T09:33:10.023Z,74.40
2019-06-08T09:34:15.037Z,75.04
2019-06-08T09:35:10.977Z,74.43
2019-06-08T09:36:09.979Z,74.70
2019-06-08T09:37:09.976Z,77.00
2019-06-08T09:38:10.979Z,74.40
2019-06-08T09:39:12.946Z,76.14
2019-06-08T09:40:09.942Z,73.73
2019-06-08T09:41:09.910Z,74.30
2019-06-08T09:42:09.898Z,75.50
2019-06-08T09:43:13.030Z,72.19
2019-06-08T09:44:11.581Z,73.00
2019-06-08T09:45:09.881Z,74.50
2019-06-08T09:46:09.860Z,75.87
2019-06-08T09:47:12.517Z,73.66
2019-06-08T09:48:09.854Z,72.56
2019-06-08T09:49:11.850Z,73.63
2019-06-08T09:50:09.820Z,73.56
2019-06-08T09:51:09.831Z,72.03
2019-06-08T09:52:09.798Z,73.63
2019-06-08T09:53:23.694Z,71.73
2019-06-08T09:54:12.645Z,72.03
2019-06-08T09:55:09.934Z,71.73
2019-06-08T09:56:10.145Z,70.83
2019-06-08T09:57:09.810Z,70.26
2019-06-08T09:58:11.816Z,71.12
2019-06-08T09:59:11.036Z,69.26
2019-06-08T10:00:18.020Z,72.76
2019-06-08T10:01:12.377Z,73.16
2019-06-08T10:02:12.814Z,72.76
2019-06-08T10:03:09.783Z,70.86
2019-06-08T10:04:09.730Z,72.06
2019-06-08T10:05:09.642Z,71.56
2019-06-08T10:06:12.279Z,73.16
2019-06-08T10:07:09.622Z,72.26
2019-06-08T10:08:09.785Z,71.66
2019-06-08T10:09:09.600Z,72.36
2019-06-08T10:10:09.901Z,72.66
2019-06-08T10:11:09.857Z,69.56
2019-06-08T10:12:10.018Z,72.66
2019-06-08T10:13:10.018Z,69.86
2019-06-08T10:14:12.391Z,70.56
2019-06-08T10:15:09.535Z,71.50
2019-06-08T10:16:10.486Z,73.10
2019-06-08T10:17:09.535Z,73.56
2019-06-08T10:18:09.545Z,72.26
2019-06-08T10:19:10.390Z,73.56
2019-06-08T10:20:10.150Z,72.16
2019-06-08T10:21:09.745Z,71.06
2019-06-08T10:22:09.462Z,71.26
2019-06-08T10:23:27.090Z,71.66
2019-06-08T10:24:10.474Z,72.96
2019-06-08T10:25:11.288Z,72.76
2019-06-08T10:26:09.411Z,72.66
2019-06-08T10:27:11.719Z,73.46
2019-06-08T10:28:13.668Z,72.16
2019-06-08T10:29:10.752Z,73.06
2019-06-08T10:30:10.194Z,71.66
2019-06-08T10:31:09.355Z,71.36
2019-06-08T10:32:09.574Z,70.16
2019-06-08T10:33:10.028Z,70.89
2019-06-08T10:34:11.197Z,73.76
2019-06-08T10:35:10.495Z,69.96
2019-06-08T10:36:12.184Z,74.00
2019-06-08T10:37:12.881Z,73.96
2019-06-08T10:38:12.028Z,72.86
2019-06-08T10:39:11.591Z,72.16
2019-06-08T10:40:09.259Z,73.36
2019-06-08T10:41:15.714Z,74.26
2019-06-08T10:42:11.491Z,73.56
2019-06-08T10:43:09.959Z,73.66
2019-06-08T10:44:13.820Z,72.26
2019-06-08T10:45:14.271Z,72.26
2019-06-08T10:46:16.353Z,72.19
2019-06-08T10:47:11.847Z,73.06
2019-06-08T10:48:09.699Z,72.86
2019-06-08T10:49:13.913Z,72.96
2019-06-08T10:50:14.716Z,71.66
2019-06-08T10:51:12.803Z,71.56
2019-06-08T10:52:10.647Z,70.06
2019-06-08T10:53:11.889Z,73.86
2019-06-08T10:54:11.078Z,69.36
2019-06-08T10:55:10.492Z,70.46
2019-06-08T10:56:11.806Z,73.26
2019-06-08T10:57:09.944Z,72.66
2019-06-08T10:58:11.255Z,71.12
2019-06-08T10:59:11.990Z,70.83
2019-06-08T11:00:17.977Z,69.89
2019-06-08T11:01:12.465Z,69.39
2019-06-08T11:02:13.464Z,68.69
2019-06-08T11:03:11.733Z,70.09
2019-06-08T11:04:09.393Z,68.96
2019-06-08T11:05:12.575Z,66.86
2019-06-08T11:06:12.961Z,73.56
2019-06-08T11:07:13.793Z,68.16
2019-06-08T11:08:14.167Z,69.76
2019-06-08T11:09:14.412Z,70.72
2019-06-08T11:10:12.077Z,71.89
2019-06-08T11:11:11.737Z,72.85
2019-06-08T11:12:14.617Z,70.76
2019-06-08T11:13:14.977Z,66.63
2019-06-08T11:14:12.528Z,72.49
2019-06-08T11:15:11.588Z,70.29
2019-06-08T11:16:12.754Z,62.91
2019-06-08T11:17:10.999Z,67.43
2019-06-08T11:18:11.835Z,68.13
2019-06-08T11:19:13.096Z,63.35
2019-06-08T11:20:11.859Z,64.31
2019-06-08T11:21:12.543Z,64.98
2019-06-08T11:22:13.859Z,64.69
2019-06-08T11:23:12.262Z,61.99
2019-06-08T11:24:23.290Z,65.42
2019-06-08T11:25:15.921Z,67.60
2019-06-08T11:26:19.385Z,61.91
2019-06-08T11:27:12.673Z,63.89
2019-06-08T11:28:14.862Z,62.90
2019-06-08T11:29:13.572Z,63.30
2019-06-08T11:30:14.193Z,60.42
2019-06-08T11:31:15.524Z,59.03
2019-06-08T11:32:12.320Z,60.84
2019-06-08T11:33:11.213Z,63.13
2019-06-08T11:34:10.210Z,62.43
2019-06-08T11:35:11.069Z,60.27
2019-06-08T11:36:13.773Z,60.77
2019-06-08T11:37:13.244Z,59.68
2019-06-08T11:38:11.496Z,59.38
2019-06-08T11:39:10.950Z,59.68
2019-06-08T11:40:10.999Z,60.30
2019-06-08T11:41:12.190Z,58.91
2019-06-08T11:42:12.320Z,60.70
2019-06-08T11:43:08.684Z,60.30
2019-06-08T11:44:12.397Z,61.30
2019-06-08T11:45:12.553Z,59.08
2019-06-08T11:46:08.552Z,60.57
2019-06-08T11:47:12.229Z,59.68
2019-06-08T11:48:08.792Z,60.84
2019-06-08T11:49:13.484Z,60.84
2019-06-08T11:50:12.951Z,57.86
2019-06-08T11:51:10.620Z,57.93
2019-06-08T11:52:09.066Z,61.28
2019-06-08T11:53:13.503Z,57.70
2019-06-08T11:54:27.293Z,59.47
2019-06-08T11:55:12.592Z,59.56
2019-06-08T11:56:10.026Z,59.66
2019-06-08T11:57:11.119Z,59.44
2019-06-08T11:58:11.838Z,60.30
2019-06-08T11:59:13.783Z,59.80
2019-06-08T12:00:18.037Z,56.01
2019-06-08T12:01:13.159Z,56.08
2019-06-08T12:02:13.526Z,57.04
2019-06-08T12:03:08.907Z,54.47
2019-06-08T12:04:08.345Z,53.97
2019-06-08T12:05:11.128Z,54.39
2019-06-08T12:06:09.457Z,52.04
2019-06-08T12:07:09.525Z,54.55
2019-06-08T12:08:08.487Z,54.38
2019-06-08T12:09:10.462Z,52.81
2019-06-08T12:10:09.644Z,53.51
2019-06-08T12:11:15.749Z,54.90
2019-06-08T12:12:14.148Z,55.91
2019-06-08T12:13:09.802Z,56.21
2019-06-08T12:14:10.806Z,54.93
2019-06-08T12:15:10.061Z,54.35
2019-06-08T12:16:14.929Z,56.64
2019-06-08T12:17:13.533Z,54.85
2019-06-08T12:18:10.968Z,54.58
2019-06-08T12:19:11.989Z,57.56
2019-06-08T12:20:14.013Z,56.57
2019-06-08T12:21:11.113Z,57.96
2019-06-08T12:22:09.932Z,57.06
2019-06-08T12:23:08.134Z,55.97
2019-06-08T12:24:08.333Z,54.95
2019-06-08T12:25:08.277Z,55.35
2019-06-08T12:26:08.237Z,57.93
2019-06-08T12:27:10.767Z,57.83
2019-06-08T12:28:09.076Z,54.75
2019-06-08T12:29:09.971Z,56.64
2019-06-08T12:30:16.724Z,55.25
2019-06-08T12:31:13.200Z,54.55
2019-06-08T12:32:10.795Z,54.23
2019-06-08T12:33:09.820Z,54.68
2019-06-08T12:34:09.194Z,54.32
2019-06-08T12:35:09.733Z,53.28
2019-06-08T12:36:09.117Z,52.86
2019-06-08T12:37:13.410Z,53.40
2019-06-08T12:38:09.975Z,54.04
2019-06-08T12:39:08.094Z,51.03
2019-06-08T12:40:11.404Z,52.56
2019-06-08T12:41:10.497Z,47.38
2019-06-08T12:42:12.076Z,49.04
2019-06-08T12:43:11.353Z,49.48
2019-06-08T12:44:10.379Z,48.05
2019-06-08T12:45:09.380Z,50.56
2019-06-08T12:46:09.630Z,50.61
2019-06-08T12:47:12.628Z,46.37
2019-06-08T12:48:15.743Z,45.17
2019-06-08T12:49:11.239Z,42.90
2019-06-08T12:50:09.836Z,46.69
2019-06-08T12:51:09.979Z,42.66
2019-06-08T12:52:09.911Z,42.83